Terminal Aerodrome Forecast
Issued by NWS

Home | Current Version | Previous Version | Graphics & Text | Print | Product List | Glossary On
Versions: 1 2 3 4 5 6 7 8 9 10 11 12 13 14 15 16
000
FTUS43 KICT 201720
TAFRSL
TAF
KRSL 201720Z 2018/2118 01015G22KT P6SM FEW250
     FM210000 05011KT P6SM SCT200
     FM211500 05016G23KT P6SM BKN100=

USA.gov is the U.S. government's official web portal to all federal, state and local government web resources and services.